Terminal Aerodrome Forecast
Issued by NWS

Home | Current Version | Previous Version | Text Only | Print | Product List | Glossary On
Versions: 1 2 3 4 5 6 7 8 9 10 11 12 13 14
000
FTUS46 KMTR 080520
TAFSTS
TAF
KSTS 080520Z 0806/0906 17004KT P6SM FEW250
      TEMPO 0807/0811 1/2SM FG VV001
     FM081100 00000KT 1/4SM FG VV001
     FM081730 19007KT P6SM FEW250
     FM090400 16004KT P6SM FEW250=

USA.gov is the U.S. government's official web portal to all federal, state and local government web resources and services.